Terminal Aerodrome Forecast
Issued by NWS Blacksburg, VA

Home | Current Version | Previous Version | Text Only | Print | Product List | Glossary On
Versions: 1 2 3 4 5 6 7 8 9 10 11 12 13 14
000
FTUS41 KRNK 271140
TAFROA
TAF
KROA 271140Z 2712/2812 VRB03KT P6SM SCT012 BKN080
     FM271600 18003KT P6SM BKN030
     FM271800 16005KT P6SM VCSH BKN035
     FM272100 16007KT P6SM VCTS BKN040CB OVC100
     FM280000 16004KT P6SM SCT045 BKN100=

USA.gov is the U.S. government's official web portal to all federal, state and local government web resources and services.